Time;durP1;ratioP1;P1;durP2;ratioP2;P2;SDS_P1;SDS_P2;PMS_P1;PMS_P2;Temp;Humidity;BMP_temperature;BMP_pressure;BME280_temperature;BME280_humidity;BME280_pressure;Samples;Min_cycle;Max_cycle;Signal;HPM_P1;HPM_P2
2023/03/25 00:00:15;;;;;;;0.47;0.30;;;;;;;11.72;57.06;96866.44;6117913;28;20759;-38
2023/03/25 00:03:19;;;;;;;0.30;0.30;;;;;;;12.31;56.80;96956.59;6137593;28;20926;-38
2023/03/25 00:06:21;;;;;;;0.33;0.30;;;;;;;12.33;56.22;96981.16;6122165;28;20233;-38
2023/03/25 00:09:24;;;;;;;0.40;0.33;;;;;;;12.39;55.32;96969.41;6120329;28;20598;-37
2023/03/25 00:12:26;;;;;;;0.30;0.30;;;;;;;12.35;56.43;96961.13;6121156;28;20265;-39
2023/03/25 00:15:28;;;;;;;0.30;0.30;;;;;;;12.33;56.67;96967.81;6117492;28;20690;-38
2023/03/25 00:18:32;;;;;;;0.67;0.20;;;;;;;12.27;58.79;96979.59;6121330;28;20286;-38
2023/03/25 00:21:34;;;;;;;0.70;0.30;;;;;;;12.20;59.46;96985.19;6121738;28;20245;-38
2023/03/25 00:24:36;;;;;;;0.77;0.30;;;;;;;12.17;59.64;96991.06;6123086;28;20238;-38
2023/03/25 00:27:38;;;;;;;0.20;0.20;;;;;;;12.12;58.99;96986.53;6126151;28;20257;-38
2023/03/25 00:30:42;;;;;;;2.20;0.30;;;;;;;12.10;59.28;96994.00;6126043;28;20235;-38
2023/03/25 00:33:44;;;;;;;0.67;0.30;;;;;;;12.05;57.85;96999.34;6129510;28;20247;-38
2023/03/25 00:36:46;;;;;;;1.90;0.40;;;;;;;12.07;56.39;96978.53;6123681;28;20265;-38
2023/03/25 00:39:48;;;;;;;0.50;0.40;;;;;;;12.08;54.99;96972.13;6123408;28;20322;-38
2023/03/25 00:42:50;;;;;;;0.40;0.40;;;;;;;12.06;55.24;96982.25;6122410;28;20265;-38
2023/03/25 00:45:55;;;;;;;0.77;0.40;;;;;;;12.17;54.33;96987.59;6121690;28;20245;-38
2023/03/25 00:48:58;;;;;;;0.20;0.20;;;;;;;12.14;54.02;96970.25;6126118;28;20237;-38
2023/03/25 00:52:00;;;;;;;0.30;0.30;;;;;;;12.13;53.87;96980.13;6126853;28;20230;-38
2023/03/25 00:55:03;;;;;;;0.20;0.20;;;;;;;12.24;53.27;96964.09;6125334;28;20314;-38
2023/03/25 00:58:05;;;;;;;0.70;0.40;;;;;;;12.13;54.45;96963.31;6124568;28;20245;-37
2023/03/25 01:01:14;;;;;;;0.40;0.40;;;;;;;12.11;55.21;96955.53;6129401;28;20280;-38
2023/03/25 01:04:16;;;;;;;0.30;0.30;;;;;;;11.98;54.67;96964.13;6133380;28;20236;-39
2023/03/25 01:07:19;;;;;;;0.43;0.40;;;;;;;11.87;54.52;96955.31;6124482;28;20246;-38
2023/03/25 01:10:22;;;;;;;0.27;0.27;;;;;;;11.96;54.75;96984.94;6124854;28;20726;-38
2023/03/25 01:13:24;;;;;;;0.80;0.40;;;;;;;12.02;54.81;96983.06;6130606;28;20294;-44
2023/03/25 01:16:27;;;;;;;1.30;0.40;;;;;;;11.85;55.42;96989.47;6128940;28;20610;-43
2023/03/25 01:19:30;;;;;;;0.20;0.20;;;;;;;11.92;56.44;96983.88;6124762;28;20309;-39
2023/03/25 01:22:32;;;;;;;0.30;0.30;;;;;;;11.86;56.28;96983.06;6127202;28;20230;-38
2023/03/25 01:25:35;;;;;;;0.70;0.40;;;;;;;11.86;56.08;96991.06;6126372;28;20239;-38
2023/03/25 01:28:39;;;;;;;0.40;0.40;;;;;;;11.74;57.04;96982.50;6117969;28;20230;-38
2023/03/25 01:31:41;;;;;;;0.30;0.30;;;;;;;11.71;56.75;96987.56;6120563;28;20328;-38
2023/03/25 01:34:45;;;;;;;0.50;0.50;;;;;;;11.67;56.73;96981.16;6125015;28;20745;-38
2023/03/25 01:37:47;;;;;;;0.30;0.30;;;;;;;11.75;56.75;96975.28;6131613;28;20318;-39
2023/03/25 01:40:51;;;;;;;0.40;0.40;;;;;;;11.76;56.76;96963.56;6121948;28;20242;-39
2023/03/25 01:44:07;;;;;;;0.30;0.30;;;;;;;11.74;56.56;96971.03;6125230;28;20375;-39
2023/03/25 01:47:09;;;;;;;1.80;0.50;;;;;;;11.78;56.57;96988.13;6128811;28;20338;-38
2023/03/25 01:50:13;;;;;;;1.37;0.50;;;;;;;11.52;56.97;96971.25;6128354;28;20673;-38
2023/03/25 01:53:16;;;;;;;0.80;0.70;;;;;;;11.66;56.93;97023.03;6125291;28;20321;-38
2023/03/25 01:56:22;;;;;;;0.50;0.50;;;;;;;11.76;57.43;97038.25;6124812;28;20761;-41
2023/03/25 01:59:27;;;;;;;0.40;0.33;;;;;;;11.74;57.29;97024.41;6123366;28;20230;-39
2023/03/25 02:02:35;;;;;;;0.50;0.50;;;;;;;11.77;57.72;97013.19;6118129;28;20713;-39
2023/03/25 02:05:44;;;;;;;0.70;0.50;;;;;;;11.66;57.76;97024.91;6126566;28;20324;-38
2023/03/25 02:08:49;;;;;;;1.17;0.63;;;;;;;11.66;56.98;97027.59;6122285;28;20234;-38
2023/03/25 02:11:53;;;;;;;0.50;0.50;;;;;;;11.69;57.29;97022.53;6122859;28;20262;-40
2023/03/25 02:14:57;;;;;;;0.73;0.60;;;;;;;11.73;57.52;97023.59;6123359;28;20238;-39
2023/03/25 02:18:15;;;;;;;0.70;0.60;;;;;;;11.33;57.37;96995.00;6122099;28;20230;-38
2023/03/25 02:21:44;;;;;;;0.70;0.67;;;;;;;11.63;57.73;97050.25;6112479;28;20300;-38
2023/03/25 02:25:06;;;;;;;0.70;0.60;;;;;;;11.58;57.97;97043.06;6125673;28;20610;-38
2023/03/25 02:28:09;;;;;;;1.20;0.63;;;;;;;11.63;57.57;97018.25;6126091;28;20234;-38
2023/03/25 02:31:45;;;;;;;0.90;0.73;;;;;;;11.52;58.26;97003.28;6124120;28;20248;-38
2023/03/25 02:35:06;;;;;;;0.77;0.77;;;;;;;11.44;58.01;97017.94;6123228;28;20244;-38
2023/03/25 02:38:20;;;;;;;1.23;0.70;;;;;;;11.47;58.32;97019.28;6121285;28;20223;-38
2023/03/25 02:41:42;;;;;;;0.77;0.70;;;;;;;11.49;59.09;97033.16;6137702;28;20603;-38
2023/03/25 02:45:06;;;;;;;0.40;0.40;;;;;;;11.51;58.68;97031.81;6114580;28;20768;-38
2023/03/25 02:48:20;;;;;;;0.73;0.73;;;;;;;11.42;59.75;97017.38;6123452;28;20717;-38
2023/03/25 02:51:30;;;;;;;1.20;0.80;;;;;;;11.26;59.66;97015.75;6123746;28;20242;-38
2023/03/25 02:54:38;;;;;;;0.87;0.80;;;;;;;11.28;59.38;97003.78;6137379;28;20354;-39
2023/03/25 02:57:44;;;;;;;1.13;0.93;;;;;;;11.33;60.41;97009.13;6124263;28;20373;-38
2023/03/25 03:00:48;;;;;;;1.30;0.97;;;;;;;11.23;59.97;97009.09;6124144;28;20356;-38
2023/03/25 03:03:50;;;;;;;1.03;0.93;;;;;;;11.28;59.92;97013.63;6121311;28;20310;-38
2023/03/25 03:06:55;;;;;;;2.93;1.20;;;;;;;10.87;59.67;96960.19;6119390;28;20683;-38
2023/03/25 03:10:21;;;;;;;1.50;1.10;;;;;;;11.13;61.01;97014.38;6125695;28;20719;-38
2023/03/25 03:13:44;;;;;;;0.90;0.90;;;;;;;10.92;59.91;96986.84;6122419;28;20240;-39
2023/03/25 03:17:02;;;;;;;2.67;1.20;;;;;;;11.14;60.11;97026.66;6125811;28;20241;-39
2023/03/25 03:20:39;;;;;;;1.10;1.00;;;;;;;11.14;60.45;97036.53;6125093;28;20226;-47
2023/03/25 03:23:47;;;;;;;1.30;1.20;;;;;;;10.98;60.34;97030.31;6035166;29;20236;-39
2023/03/25 03:27:22;;;;;;;1.03;1.00;;;;;;;11.00;61.01;97038.84;6045351;29;20634;-39
2023/03/25 03:30:29;;;;;;;1.27;1.13;;;;;;;11.03;60.13;97051.66;6050815;29;20259;-39
2023/03/25 03:33:49;;;;;;;1.90;1.30;;;;;;;11.00;59.89;97057.50;6051403;29;20657;-38
2023/03/25 03:36:54;;;;;;;1.10;1.00;;;;;;;11.06;60.19;97046.59;6044522;29;20312;-38
2023/03/25 03:39:57;;;;;;;1.47;1.30;;;;;;;10.88;60.90;97055.03;6043662;29;20236;-38
2023/03/25 03:43:04;;;;;;;1.43;1.10;;;;;;;10.93;60.90;97060.38;6041196;29;20246;-38
2023/03/25 03:46:15;;;;;;;1.70;1.60;;;;;;;10.95;60.75;97052.97;6045780;29;20235;-38
2023/03/25 03:49:22;;;;;;;1.40;1.30;;;;;;;11.00;60.11;97052.97;6053815;29;20380;-38
2023/03/25 03:52:32;;;;;;;1.70;1.60;;;;;;;10.92;61.46;97055.34;6050288;29;20248;-39
2023/03/25 03:55:42;;;;;;;1.40;1.30;;;;;;;10.73;61.10;97023.00;6051021;29;20237;-38
2023/03/25 03:58:45;;;;;;;1.50;1.40;;;;;;;10.16;61.01;96973.09;6122096;28;20342;-38
2023/03/25 04:01:54;;;;;;;1.93;1.33;;;;;;;10.65;61.49;97029.63;6129904;28;20313;-39
2023/03/25 04:04:59;;;;;;;1.70;1.50;;;;;;;10.80;61.02;97036.91;6125391;28;20328;-39
2023/03/25 04:08:17;;;;;;;1.40;1.30;;;;;;;10.84;61.26;97038.00;6129400;28;20229;-39
2023/03/25 04:11:22;;;;;;;1.63;1.50;;;;;;;10.83;61.32;97042.50;6133932;28;20229;-39
2023/03/25 04:14:25;;;;;;;1.93;1.40;;;;;;;10.83;61.63;97042.50;6125188;28;20229;-38
2023/03/25 04:17:29;;;;;;;1.40;1.30;;;;;;;10.84;61.01;97046.78;6122966;28;20230;-39
2023/03/25 04:20:33;;;;;;;1.83;1.37;;;;;;;10.79;61.08;97045.97;6131874;28;20244;-38
2023/03/25 04:23:36;;;;;;;2.13;1.50;;;;;;;10.81;61.32;97060.59;6121572;28;20244;-39
2023/03/25 04:26:38;;;;;;;2.87;1.40;;;;;;;10.74;60.78;97052.06;6124451;28;20229;-38
2023/03/25 04:29:42;;;;;;;2.47;1.20;;;;;;;10.82;61.31;97061.41;6121489;28;20256;-39
2023/03/25 04:32:46;;;;;;;2.47;1.40;;;;;;;10.28;61.38;96997.69;6124514;28;20238;-38
2023/03/25 04:35:49;;;;;;;2.07;1.10;;;;;;;10.63;61.73;97047.72;6127062;28;20232;-38
2023/03/25 04:38:52;;;;;;;0.90;0.83;;;;;;;10.66;61.79;97068.50;6119655;28;20694;-39
2023/03/25 04:42:00;;;;;;;1.10;1.00;;;;;;;10.53;61.91;97056.44;6124602;28;20381;-38
2023/03/25 04:45:04;;;;;;;1.90;1.23;;;;;;;10.45;60.59;97024.19;6127547;28;20715;-39
2023/03/25 04:48:18;;;;;;;3.00;1.10;;;;;;;10.53;60.95;97069.75;6124777;28;21316;-38
2023/03/25 04:51:22;;;;;;;1.40;1.20;;;;;;;10.55;60.41;97067.66;6124005;28;20674;-44
2023/03/25 04:54:24;;;;;;;1.50;1.10;;;;;;;10.65;61.14;97079.44;6126111;28;20705;-38
2023/03/25 04:57:26;;;;;;;3.30;1.00;;;;;;;10.56;61.25;97074.56;6127008;28;20705;-49
2023/03/25 05:00:29;;;;;;;1.13;1.00;;;;;;;10.65;61.41;97084.75;6125001;28;20728;-39
2023/03/25 05:03:31;;;;;;;2.07;1.13;;;;;;;10.53;60.80;97088.41;6127639;28;20463;-38
2023/03/25 05:06:37;;;;;;;1.93;1.10;;;;;;;10.49;59.80;97075.84;6120582;28;20281;-38
2023/03/25 05:09:39;;;;;;;1.40;1.00;;;;;;;10.56;60.33;97087.91;6122704;28;20226;-38
2023/03/25 05:12:41;;;;;;;1.13;0.97;;;;;;;10.62;60.37;97091.38;6122400;28;20769;-45
2023/03/25 05:15:43;;;;;;;1.10;0.90;;;;;;;10.48;60.26;97069.72;6125000;28;20732;-40
2023/03/25 05:18:45;;;;;;;1.33;0.90;;;;;;;10.64;60.07;97085.78;6123040;28;20237;-38
2023/03/25 05:21:47;;;;;;;0.80;0.73;;;;;;;10.71;60.32;97102.38;6123320;28;20236;-38
2023/03/25 05:24:52;;;;;;;1.77;0.97;;;;;;;10.67;60.21;97106.59;6118067;28;20726;-39
2023/03/25 05:27:54;;;;;;;1.70;0.80;;;;;;;10.68;59.74;97085.03;6125335;28;20230;-37
2023/03/25 05:30:56;;;;;;;1.50;0.77;;;;;;;10.71;60.04;97102.38;6124745;28;20597;-37
2023/03/25 05:33:58;;;;;;;1.07;0.90;;;;;;;10.73;60.52;97085.06;6122032;28;20408;-37
2023/03/25 05:37:00;;;;;;;1.40;0.90;;;;;;;10.78;60.17;97079.75;6127261;28;20225;-37
2023/03/25 05:40:03;;;;;;;1.50;0.87;;;;;;;10.75;60.02;97092.81;6124468;28;20340;-37
2023/03/25 05:43:21;;;;;;;3.10;0.77;;;;;;;10.73;60.41;97078.94;6126344;28;20265;-37
2023/03/25 05:46:24;;;;;;;2.63;0.90;;;;;;;10.78;59.52;97086.97;6135661;28;20720;-37
2023/03/25 05:49:28;;;;;;;0.70;0.70;;;;;;;10.85;58.30;97084.88;6122119;28;20823;-37
2023/03/25 05:52:31;;;;;;;1.97;0.90;;;;;;;10.73;58.75;97089.59;6119933;28;20331;-37
2023/03/25 05:55:33;;;;;;;1.17;0.90;;;;;;;10.86;58.48;97094.47;6120251;28;20379;-37
2023/03/25 05:58:39;;;;;;;1.50;0.70;;;;;;;10.66;58.59;97087.16;6120725;28;20685;-37
2023/03/25 06:01:44;;;;;;;0.97;0.67;;;;;;;10.82;58.07;97099.50;6121204;28;20385;-37
2023/03/25 06:04:50;;;;;;;2.50;1.07;;;;;;;10.87;58.38;97109.41;6116602;28;20238;-37
2023/03/25 06:07:55;;;;;;;1.77;0.80;;;;;;;10.85;57.68;97103.53;6121242;28;20249;-37
2023/03/25 06:10:57;;;;;;;1.40;0.70;;;;;;;10.89;56.34;97104.63;6114953;28;20225;-37
2023/03/25 06:13:59;;;;;;;2.27;1.07;;;;;;;10.96;56.57;97117.72;6119184;28;20225;-37
2023/03/25 06:17:04;;;;;;;2.30;1.00;;;;;;;10.94;56.74;97104.66;6120098;28;20944;-37
2023/03/25 06:20:12;;;;;;;2.73;1.00;;;;;;;10.99;56.13;97117.22;6128271;28;20238;-37
2023/03/25 06:23:15;;;;;;;1.33;0.80;;;;;;;11.02;56.46;97120.16;6122015;28;20309;-37
2023/03/25 06:26:19;;;;;;;1.03;0.90;;;;;;;11.09;55.44;97131.41;6121178;28;20364;-37
2023/03/25 06:29:21;;;;;;;1.00;0.80;;;;;;;11.02;56.08;97130.81;6122602;28;20227;-37
2023/03/25 06:32:24;;;;;;;3.20;0.90;;;;;;;11.09;55.50;97136.72;6119742;28;20227;-37
2023/03/25 06:35:27;;;;;;;2.10;0.70;;;;;;;11.06;55.37;97131.09;6117032;28;20237;-37
2023/03/25 06:38:29;;;;;;;3.30;0.90;;;;;;;11.03;55.80;97131.59;6120062;28;20603;-37
2023/03/25 06:41:39;;;;;;;2.23;0.80;;;;;;;11.04;55.44;97144.69;6120576;28;20313;-37
2023/03/25 06:44:49;;;;;;;2.47;0.87;;;;;;;11.09;54.32;97123.41;6136472;28;20250;-37
2023/03/25 06:48:14;;;;;;;0.90;0.70;;;;;;;11.24;54.37;97120.00;6118335;28;20979;-37
2023/03/25 06:51:16;;;;;;;2.87;0.80;;;;;;;11.22;55.24;97129.31;6120403;28;20221;-37
2023/03/25 06:54:18;;;;;;;1.13;0.60;;;;;;;11.23;54.46;97126.41;6122486;28;20233;-37
2023/03/25 06:57:21;;;;;;;0.87;0.60;;;;;;;11.14;54.71;97100.50;6116860;28;20711;-37
2023/03/25 07:00:25;;;;;;;1.37;0.70;;;;;;;11.26;53.39;97120.53;6124106;28;20241;-37
2023/03/25 07:03:27;;;;;;;1.23;0.77;;;;;;;11.32;53.90;97119.50;6117982;28;20234;-37
2023/03/25 07:06:30;;;;;;;1.37;0.60;;;;;;;11.40;54.51;97107.53;6121416;28;20602;-37
2023/03/25 07:09:33;;;;;;;2.30;0.80;;;;;;;11.40;52.58;97112.88;6116221;28;20233;-37
2023/03/25 07:12:35;;;;;;;3.00;0.80;;;;;;;11.44;52.54;97115.81;6116112;28;20223;-37
2023/03/25 07:15:37;;;;;;;1.50;0.90;;;;;;;11.47;52.73;97132.09;6123822;28;20235;-37
2023/03/25 07:18:40;;;;;;;1.70;0.90;;;;;;;11.45;51.74;97114.75;6121567;28;20329;-37
2023/03/25 07:21:42;;;;;;;1.57;0.70;;;;;;;11.49;51.94;97105.97;6115823;28;20757;-37
2023/03/25 07:24:44;;;;;;;1.40;0.80;;;;;;;11.59;51.92;97094.53;6108244;28;20231;-37
2023/03/25 07:27:46;;;;;;;0.90;0.70;;;;;;;11.62;51.88;97097.50;6113126;28;20241;-37
2023/03/25 07:30:51;;;;;;;2.10;0.80;;;;;;;11.58;49.96;97088.41;6131262;28;20321;-37
2023/03/25 07:33:54;;;;;;;1.23;0.90;;;;;;;11.57;50.24;97101.97;6115439;28;20278;-37
2023/03/25 07:36:56;;;;;;;2.67;0.83;;;;;;;11.71;50.22;97089.75;6116756;28;20245;-37
2023/03/25 07:39:58;;;;;;;2.43;0.67;;;;;;;11.79;50.69;97105.25;6115881;28;20236;-38
2023/03/25 07:43:00;;;;;;;1.83;0.63;;;;;;;11.87;50.32;97095.94;6120896;28;20239;-38
2023/03/25 07:46:22;;;;;;;2.00;0.73;;;;;;;12.04;49.29;97095.72;6116898;28;20234;-38
2023/03/25 07:49:25;;;;;;;1.20;0.70;;;;;;;12.11;48.95;97096.25;6118487;28;20272;-37
2023/03/25 07:52:27;;;;;;;4.53;0.90;;;;;;;12.09;48.69;97093.88;6117454;28;20250;-37
2023/03/25 07:55:29;;;;;;;1.53;0.63;;;;;;;12.18;48.58;97082.66;6120576;28;20770;-37
2023/03/25 07:58:31;;;;;;;1.70;0.90;;;;;;;12.30;48.20;97081.31;6121248;28;20268;-38
2023/03/25 08:01:34;;;;;;;3.07;1.30;;;;;;;12.09;47.81;97077.03;6118922;28;20718;-38
2023/03/25 08:04:36;;;;;;;2.37;0.63;;;;;;;11.93;48.75;97040.75;6117536;28;20272;-38
2023/03/25 08:07:38;;;;;;;10.70;1.70;;;;;;;12.23;48.71;97071.97;6116733;28;20524;-39
2023/03/25 08:10:46;;;;;;;1.27;0.87;;;;;;;12.20;48.77;97083.19;6117298;28;20627;-38
2023/03/25 08:13:48;;;;;;;3.30;0.90;;;;;;;12.16;48.53;97092.78;6120034;28;20230;-39
2023/03/25 08:16:50;;;;;;;1.83;0.70;;;;;;;11.93;48.16;97086.13;6115199;28;20242;-38
2023/03/25 08:19:52;;;;;;;2.10;0.80;;;;;;;11.84;48.29;97083.16;6115612;28;20233;-38
2023/03/25 08:22:56;;;;;;;2.43;0.77;;;;;;;11.96;48.53;97112.25;6115877;28;20259;-37
2023/03/25 08:25:58;;;;;;;1.80;0.60;;;;;;;11.86;48.73;97097.03;6121409;28;20701;-37
2023/03/25 08:29:01;;;;;;;2.07;0.73;;;;;;;11.94;48.73;97103.72;6123676;28;20237;-38
2023/03/25 08:32:03;;;;;;;2.47;0.70;;;;;;;11.68;48.53;97081.50;6122068;28;20608;-37
2023/03/25 08:35:07;;;;;;;7.13;1.73;;;;;;;11.82;48.95;97099.44;6115818;28;20309;-38
2023/03/25 08:38:09;;;;;;;2.47;0.80;;;;;;;12.03;49.41;97112.81;6118795;28;20581;-37
2023/03/25 08:41:12;;;;;;;2.70;0.80;;;;;;;12.08;48.95;97108.28;6122731;28;20333;-36
2023/03/25 08:44:14;;;;;;;5.30;0.63;;;;;;;12.05;49.31;97100.78;6125087;28;20373;-36
2023/03/25 08:47:16;;;;;;;2.03;0.80;;;;;;;11.91;49.43;97091.69;6126304;28;20336;-36
2023/03/25 08:50:18;;;;;;;3.37;0.87;;;;;;;11.98;49.26;97132.28;6123350;28;20368;-36
2023/03/25 08:53:20;;;;;;;8.40;0.97;;;;;;;11.96;48.90;97122.94;6122830;28;20234;-37
2023/03/25 08:56:22;;;;;;;2.53;1.00;;;;;;;11.92;49.01;97127.19;6121541;28;20237;-36
2023/03/25 08:59:24;;;;;;;6.03;1.10;;;;;;;11.90;48.96;97121.31;6122899;28;20234;-37
2023/03/25 09:02:27;;;;;;;2.53;0.80;;;;;;;11.75;48.51;97098.03;6123383;28;20234;-36
2023/03/25 09:05:29;;;;;;;2.53;0.80;;;;;;;11.99;48.71;97147.25;6125303;28;20706;-36
2023/03/25 09:08:32;;;;;;;2.53;0.67;;;;;;;11.97;49.78;97144.03;6126840;28;20235;-37
2023/03/25 09:11:34;;;;;;;2.13;0.77;;;;;;;11.96;48.59;97134.41;6124178;28;20714;-36
2023/03/25 09:14:37;;;;;;;2.40;1.33;;;;;;;12.04;47.53;97138.44;6125504;28;20229;-37
2023/03/25 09:17:41;;;;;;;3.20;1.10;;;;;;;12.18;47.35;97144.06;6118685;28;20293;-37
2023/03/25 09:20:47;;;;;;;2.43;0.93;;;;;;;12.08;46.36;97110.94;6122433;28;20238;-37
2023/03/25 09:23:49;;;;;;;2.50;0.90;;;;;;;12.11;45.53;97131.75;6123963;28;20400;-37
2023/03/25 09:26:51;;;;;;;3.87;1.10;;;;;;;12.04;46.16;97131.22;6121930;28;20627;-37
2023/03/25 09:29:53;;;;;;;2.57;0.90;;;;;;;12.18;46.52;97128.84;6125746;28;20237;-37
2023/03/25 09:32:55;;;;;;;7.53;1.70;;;;;;;12.18;46.00;97107.50;6116935;28;20592;-37
2023/03/25 09:35:57;;;;;;;2.40;0.90;;;;;;;12.05;45.49;97081.31;6125330;28;20765;-37
2023/03/25 09:38:59;;;;;;;2.83;1.00;;;;;;;12.39;47.36;97118.97;6122504;28;20592;-37
2023/03/25 09:42:20;;;;;;;2.77;1.40;;;;;;;12.46;45.42;97110.69;6121083;28;20597;-37
2023/03/25 09:45:28;;;;;;;2.97;0.77;;;;;;;12.45;45.91;97111.75;6123321;28;20595;-37
2023/03/25 09:48:39;;;;;;;1.50;0.70;;;;;;;12.47;45.35;97121.13;6117928;28;20577;-37
2023/03/25 09:51:42;;;;;;;5.80;0.73;;;;;;;12.53;45.59;97125.41;6114461;28;20666;-37
2023/03/25 09:54:50;;;;;;;2.67;0.67;;;;;;;12.54;45.45;97097.59;6116941;28;20232;-37
2023/03/25 09:58:04;;;;;;;1.13;0.60;;;;;;;12.87;44.79;97114.94;6117148;28;20322;-37
2023/03/25 10:01:21;;;;;;;4.23;0.87;;;;;;;13.01;44.31;97128.56;6119867;28;20503;-37
2023/03/25 10:05:10;;;;;;;2.03;0.77;;;;;;;13.18;43.81;97106.84;6142369;28;20238;-40
2023/03/25 10:08:43;;;;;;;4.23;0.93;;;;;;;13.32;43.44;97125.81;6111590;28;20234;-37
2023/03/25 10:12:03;;;;;;;2.40;0.70;;;;;;;13.02;43.26;97106.09;6119776;28;20325;-37
2023/03/25 10:15:26;;;;;;;4.17;1.10;;;;;;;13.11;42.22;97114.38;6122359;28;20634;-37
2023/03/25 10:18:42;;;;;;;18.70;3.13;;;;;;;13.15;43.72;97102.03;6121660;28;20363;-37
2023/03/25 10:21:57;;;;;;;6.73;0.90;;;;;;;13.20;43.76;97102.03;6119342;28;21103;-37
2023/03/25 10:25:05;;;;;;;1.10;0.67;;;;;;;13.14;42.16;97111.94;6119744;28;20645;-37
2023/03/25 10:28:17;;;;;;;0.50;0.50;;;;;;;13.06;44.63;97117.84;6125973;28;20243;-37
2023/03/25 10:31:24;;;;;;;2.07;0.60;;;;;;;12.99;43.13;97101.28;6117766;28;20453;-37
2023/03/25 10:34:36;;;;;;;4.43;0.60;;;;;;;13.22;42.53;97133.88;6118760;28;21093;-37
2023/03/25 10:37:43;;;;;;;3.17;0.60;;;;;;;13.23;41.97;97135.47;6119272;28;20337;-37
2023/03/25 10:40:51;;;;;;;1.70;0.50;;;;;;;13.14;43.10;97140.53;6126335;28;20322;-37
2023/03/25 10:43:54;;;;;;;3.47;0.67;;;;;;;13.10;42.86;97142.97;6122909;28;20734;-37
2023/03/25 10:47:05;;;;;;;1.33;0.60;;;;;;;13.02;43.02;97143.53;6125419;28;20321;-37
2023/03/25 10:50:14;;;;;;;10.40;1.27;;;;;;;13.09;42.70;97140.56;6124100;28;20396;-37
2023/03/25 10:53:27;;;;;;;2.13;0.50;;;;;;;13.21;42.06;97143.75;6117303;28;20280;-37
2023/03/25 10:56:44;;;;;;;3.13;0.80;;;;;;;13.24;38.91;97158.47;6138201;28;20624;-37
2023/03/25 11:00:13;;;;;;;2.07;0.80;;;;;;;13.26;39.62;97153.69;6121617;28;20231;-37
2023/03/25 11:03:29;;;;;;;1.40;0.70;;;;;;;13.32;39.60;97157.94;6114977;28;20756;-37
2023/03/25 11:06:38;;;;;;;1.50;0.50;;;;;;;13.32;39.92;97165.97;6119734;28;20262;-37
2023/03/25 11:09:41;;;;;;;3.00;0.90;;;;;;;13.24;40.00;97174.53;6118684;28;20574;-37
2023/03/25 11:12:45;;;;;;;2.40;0.63;;;;;;;13.03;40.02;97152.34;6125036;28;20233;-36
2023/03/25 11:15:48;;;;;;;0.60;0.50;;;;;;;13.26;40.70;97149.13;6120046;28;20241;-37
2023/03/25 11:18:52;;;;;;;1.87;0.90;;;;;;;13.33;40.49;97156.84;6117715;28;20309;-37
2023/03/25 11:21:59;;;;;;;1.17;0.57;;;;;;;13.41;39.86;97151.75;6115829;28;20324;-36
2023/03/25 11:25:32;;;;;;;2.20;0.80;;;;;;;13.54;39.89;97149.56;6118702;28;20305;-37
2023/03/25 11:28:44;;;;;;;3.10;0.90;;;;;;;13.76;38.72;97159.91;6119447;28;20836;-36
2023/03/25 11:32:06;;;;;;;3.23;0.80;;;;;;;13.47;39.33;97149.84;6119221;28;20229;-36
2023/03/25 11:35:27;;;;;;;1.27;0.70;;;;;;;13.23;39.91;97098.84;6114042;28;20238;-36
2023/03/25 11:38:34;;;;;;;3.13;0.80;;;;;;;13.70;39.04;97131.56;6118636;28;20758;-37
2023/03/25 11:41:36;;;;;;;2.17;0.67;;;;;;;13.79;38.73;97125.38;6122753;28;20239;-36
2023/03/25 11:44:39;;;;;;;2.85;0.80;;;;;;;14.19;38.14;97116.28;6124929;28;20818;-36
2023/03/25 11:47:41;;;;;;;2.83;1.10;;;;;;;14.03;37.58;97106.72;6119699;28;20742;-36
2023/03/25 11:50:55;;;;;;;1.60;0.80;;;;;;;14.10;38.20;97112.59;6114189;28;20237;-37
2023/03/25 11:54:01;;;;;;;3.10;1.10;;;;;;;14.08;37.44;97100.53;6117467;28;20281;-37
2023/03/25 11:57:09;;;;;;;0.77;0.70;;;;;;;13.99;37.34;97088.81;6123287;28;20724;-36
2023/03/25 12:00:23;;;;;;;1.63;0.80;;;;;;;14.08;37.97;97097.88;6121469;28;20741;-36
2023/03/25 12:03:27;;;;;;;1.37;0.67;;;;;;;14.21;36.58;97075.81;6117070;28;20238;-35
2023/03/25 12:06:30;;;;;;;1.30;0.90;;;;;;;14.50;36.59;97077.75;6114070;28;20304;-36
2023/03/25 12:09:32;;;;;;;2.50;0.80;;;;;;;14.92;35.38;97069.81;6115173;28;20241;-37
2023/03/25 12:12:47;;;;;;;0.87;0.60;;;;;;;15.09;34.68;97072.06;6123312;28;20234;-37
2023/03/25 12:16:02;;;;;;;1.60;0.60;;;;;;;15.03;33.96;97050.97;6119169;28;20231;-36
2023/03/25 12:19:31;;;;;;;1.00;0.60;;;;;;;15.15;34.75;97062.06;6117940;28;20226;-37
2023/03/25 12:22:52;;;;;;;2.10;1.17;;;;;;;15.21;33.49;97059.03;6123435;28;20289;-37
2023/03/25 12:26:12;;;;;;;0.83;0.40;;;;;;;15.34;34.26;97043.34;6122702;28;20268;-37
2023/03/25 12:29:34;;;;;;;1.17;0.70;;;;;;;15.26;32.85;97062.75;6121828;28;20582;-37
2023/03/25 12:33:11;;;;;;;1.83;0.40;;;;;;;15.56;32.49;97064.25;6119163;28;20242;-36
2023/03/25 12:36:37;;;;;;;1.77;0.63;;;;;;;15.71;32.15;97043.41;6115160;28;21034;-37
2023/03/25 12:40:16;;;;;;;1.40;0.50;;;;;;;15.66;31.53;97037.28;6125789;28;20261;-37
2023/03/25 12:43:33;;;;;;;1.43;0.40;;;;;;;15.32;31.81;97032.06;6122356;28;20333;-37
2023/03/25 12:46:58;;;;;;;0.80;0.50;;;;;;;15.52;32.52;97036.38;6123773;28;20389;-37
2023/03/25 12:50:07;;;;;;;2.00;0.50;;;;;;;15.76;33.72;97022.91;6116081;28;20344;-37
2023/03/25 12:53:22;;;;;;;2.50;0.67;;;;;;;15.88;32.42;97010.66;6126028;28;20817;-37
2023/03/25 12:56:42;;;;;;;1.27;0.40;;;;;;;15.89;30.61;97028.38;6116010;28;20219;-37
2023/03/25 13:00:06;;;;;;;0.93;0.67;;;;;;;15.78;30.32;97026.13;6116929;28;20239;-36
2023/03/25 13:03:27;;;;;;;3.13;0.60;;;;;;;15.89;30.91;97023.00;6112384;28;20243;-36
2023/03/25 13:06:38;;;;;;;1.60;0.63;;;;;;;15.78;32.23;97010.00;6109837;28;20386;-36
2023/03/25 13:09:52;;;;;;;3.67;0.70;;;;;;;15.74;31.73;97004.41;6114899;28;20321;-37
2023/03/25 13:12:57;;;;;;;1.53;0.53;;;;;;;15.82;31.81;97019.09;6114566;28;20222;-37
2023/03/25 13:16:14;;;;;;;1.47;0.43;;;;;;;15.92;30.18;97002.81;6115980;28;20230;-37
2023/03/25 13:19:21;;;;;;;0.77;0.40;;;;;;;16.01;30.26;97014.50;6116689;28;20794;-36
2023/03/25 13:22:30;;;;;;;2.10;0.47;;;;;;;16.14;29.69;97000.28;6115943;28;20563;-36
2023/03/25 13:25:41;;;;;;;1.00;0.50;;;;;;;16.61;29.15;97016.44;6118715;28;20942;-36
2023/03/25 13:28:47;;;;;;;2.03;0.50;;;;;;;17.01;27.81;97015.69;6115608;28;20470;-36
2023/03/25 13:31:50;;;;;;;0.73;0.45;;;;;;;16.77;28.49;97015.88;6119947;28;20426;-39
2023/03/25 13:35:06;;;;;;;1.33;0.30;;;;;;;16.20;28.49;97017.91;6110363;28;20241;-38
2023/03/25 13:38:16;;;;;;;0.87;0.57;;;;;;;15.83;29.48;97018.78;6119720;28;20229;-38
2023/03/25 13:41:27;;;;;;;0.70;0.43;;;;;;;15.47;30.43;97010.44;6117084;28;20459;-40
2023/03/25 13:44:35;;;;;;;0.93;0.50;;;;;;;15.37;30.62;97010.53;6118752;28;22217;-38
2023/03/25 13:47:43;;;;;;;0.77;0.50;;;;;;;15.39;30.85;96976.16;6116995;28;20245;-38
2023/03/25 13:50:45;;;;;;;0.40;0.30;;;;;;;15.58;30.08;97003.03;6126030;28;20246;-38
2023/03/25 13:54:19;;;;;;;0.40;0.40;;;;;;;14.99;30.40;96983.66;6115481;28;20245;-38
2023/03/25 13:57:48;;;;;;;0.80;0.50;;;;;;;14.86;30.79;97017.31;6101387;28;20250;-38
2023/03/25 14:01:02;;;;;;;1.83;0.50;;;;;;;14.42;30.65;97017.47;6136918;28;20239;-38
2023/03/25 14:04:37;;;;;;;1.77;0.50;;;;;;;14.35;31.55;97007.09;6116471;28;20258;-37
2023/03/25 14:08:25;;;;;;;0.47;0.40;;;;;;;14.40;32.32;96999.03;6114479;28;20234;-37
2023/03/25 14:11:39;;;;;;;0.53;0.40;;;;;;;14.00;31.67;96968.03;6094338;28;20230;-38
2023/03/25 14:14:55;;;;;;;1.97;0.60;;;;;;;14.26;31.97;97021.38;6112921;28;20776;-38
2023/03/25 14:18:01;;;;;;;1.60;0.53;;;;;;;14.10;32.51;97018.84;6116046;28;20885;-39
2023/03/25 14:21:39;;;;;;;0.90;0.50;;;;;;;14.03;33.13;97009.53;6122031;28;20777;-38
2023/03/25 14:24:42;;;;;;;0.77;0.40;;;;;;;14.06;33.53;97007.09;6115570;28;20238;-38
2023/03/25 14:27:49;;;;;;;1.37;0.50;;;;;;;13.55;33.59;96932.53;6122761;28;20227;-40
2023/03/25 14:31:10;;;;;;;0.83;0.47;;;;;;;14.20;34.03;97004.56;6120895;28;20241;-39
2023/03/25 14:34:22;;;;;;;1.20;0.60;;;;;;;14.42;33.63;97006.75;6128205;28;20211;-40
2023/03/25 14:37:26;;;;;;;0.60;0.30;;;;;;;14.46;33.06;97005.13;6115595;28;20326;-40
2023/03/25 14:40:46;;;;;;;1.50;0.30;;;;;;;14.53;33.25;97008.31;6118966;28;20289;-39
2023/03/25 17:19:49;;;;;;;0.95;0.40;;;;;;;6.83;72.24;97070.38;6209282;28;20485;-89
2023/03/25 17:22:59;;;;;;;0.75;0.30;;;;;;;6.19;73.81;96996.22;6165707;28;20467;-89